Saratoga Hills, California
Current Conditions -  °F | °C
As of 2:51 PM on Wednesday 22 Oct 2014 (Local Time) from KVNY Reporting Station
Clear Clear  
Wind Chill: 89°   Ceiling: Unl
Heat Index: 89°   Visibility: 10mi
Dew Point: 29°   Wind: 3mph
Humidity: 12%   Direction: NA
Pressure: 29.89"   Gusts: NA
Location:  34.1403°N, 118.762°W
Report Text: KVNY 222151Z VRB03KT 10SM CLR 32/M02 A2989 RMK AO2 SLP112 T03171017
Loading
Personal Weather Stations






























Interactive Weather Map
Tropical Storm Tracking
New forecast layout! Learn more

10-Day Weather Forecast

Advertisements
Track Severe Weather on mobile